createdAt,value
2022-10-15T00:01:42.503Z,5.83
2022-10-15T00:04:10.972Z,5.23
2022-10-15T00:06:39.577Z,5.40
2022-10-15T00:09:07.857Z,5.47
2022-10-15T00:11:37.430Z,5.43
2022-10-15T00:14:05.740Z,6.20
2022-10-15T00:16:34.835Z,6.10
2022-10-15T00:19:02.872Z,5.40
2022-10-15T00:21:31.029Z,5.60
2022-10-15T00:23:59.685Z,6.10
2022-10-15T00:26:29.751Z,5.90
2022-10-15T00:29:02.292Z,6.30
2022-10-15T00:31:32.121Z,6.33
2022-10-15T00:34:02.757Z,5.83
2022-10-15T00:36:33.631Z,6.47
2022-10-15T00:39:02.752Z,6.57
2022-10-15T00:41:33.545Z,7.30
2022-10-15T00:44:24.284Z,7.07
2022-10-15T00:46:54.915Z,7.20
2022-10-15T00:49:27.155Z,7.07
2022-10-15T00:51:59.288Z,7.20
2022-10-15T00:54:30.194Z,7.50
2022-10-15T00:56:59.001Z,7.60
2022-10-15T00:59:31.519Z,7.53
2022-10-15T01:02:01.890Z,7.93
2022-10-15T01:04:32.407Z,8.43
2022-10-15T01:07:00.760Z,8.67
2022-10-15T01:09:29.320Z,9.63
2022-10-15T01:11:58.616Z,10.60
2022-10-15T01:14:37.915Z,11.03
2022-10-15T01:17:11.985Z,10.97
2022-10-15T01:20:10.839Z,10.23
2022-10-15T01:22:52.512Z,10.57
2022-10-15T01:25:34.707Z,12.07
2022-10-15T01:28:13.910Z,12.93
2022-10-15T01:30:48.462Z,12.43
2022-10-15T01:33:27.009Z,13.77
2022-10-15T01:36:03.978Z,13.83
2022-10-15T01:38:48.874Z,13.17
2022-10-15T01:41:25.605Z,14.43
2022-10-15T01:44:00.781Z,14.63
2022-10-15T01:46:37.272Z,14.33
2022-10-15T01:49:06.913Z,15.73
2022-10-15T01:51:37.972Z,14.57
2022-10-15T01:54:09.151Z,14.30
2022-10-15T01:56:40.021Z,14.80
2022-10-15T01:59:10.720Z,15.40
2022-10-15T02:04:21.498Z,16.30
2022-10-15T02:06:55.561Z,15.20
2022-10-15T02:09:35.253Z,15.40
2022-10-15T02:12:12.900Z,17.13
2022-10-15T02:14:46.359Z,16.57
2022-10-15T02:17:19.607Z,16.30
2022-10-15T02:19:53.207Z,16.10
2022-10-15T02:22:26.593Z,17.10
2022-10-15T02:24:59.769Z,17.13
2022-10-15T02:27:30.364Z,17.03
2022-10-15T02:30:00.648Z,17.43
2022-10-15T02:32:33.573Z,17.73
2022-10-15T02:35:03.382Z,17.77
2022-10-15T02:37:32.504Z,17.73
2022-10-15T02:40:00.704Z,19.47
2022-10-15T02:42:29.543Z,18.07
2022-10-15T02:44:57.714Z,19.53
2022-10-15T02:50:00.707Z,18.10
2022-10-15T02:52:28.794Z,20.57
2022-10-15T02:54:56.943Z,19.27
2022-10-15T02:57:25.713Z,20.53
2022-10-15T02:59:53.911Z,20.07
2022-10-15T03:02:22.110Z,19.90
2022-10-15T03:04:50.568Z,19.13
2022-10-15T03:07:20.734Z,20.03
2022-10-15T03:09:49.023Z,18.97
2022-10-15T03:12:17.545Z,19.57
2022-10-15T03:14:45.741Z,18.80
2022-10-15T03:17:13.830Z,19.00
2022-10-15T03:19:42.388Z,19.77
2022-10-15T03:22:10.360Z,19.23
2022-10-15T03:24:40.032Z,19.27
2022-10-15T03:27:08.520Z,19.37
2022-10-15T03:29:36.529Z,19.33
2022-10-15T03:32:04.746Z,19.60
2022-10-15T03:34:33.233Z,18.50
2022-10-15T03:37:01.290Z,18.90
2022-10-15T03:39:29.566Z,17.83
2022-10-15T03:41:59.500Z,18.80
2022-10-15T03:44:27.758Z,17.73
2022-10-15T03:46:55.842Z,16.43
2022-10-15T03:49:24.178Z,18.17
2022-10-15T03:51:52.206Z,17.70
2022-10-15T03:54:20.293Z,17.63
2022-10-15T03:56:48.566Z,18.93
2022-10-15T03:59:18.082Z,16.97
2022-10-15T04:01:46.360Z,16.20
2022-10-15T04:04:14.678Z,14.53
2022-10-15T04:06:42.953Z,15.57
2022-10-15T04:09:12.473Z,15.30
2022-10-15T04:11:43.872Z,15.30
2022-10-15T04:14:11.939Z,15.33
2022-10-15T04:16:41.657Z,14.80
2022-10-15T04:19:11.231Z,12.83
2022-10-15T04:21:39.627Z,13.57
2022-10-15T04:24:07.989Z,14.00
2022-10-15T04:26:36.234Z,12.40
2022-10-15T04:29:04.550Z,12.87
2022-10-15T04:31:33.572Z,11.73
2022-10-15T04:34:03.484Z,12.27
2022-10-15T04:36:31.659Z,12.30
2022-10-15T04:39:00.021Z,13.50
2022-10-15T04:41:28.674Z,11.87
2022-10-15T04:43:56.839Z,11.83
2022-10-15T04:46:25.313Z,11.80
2022-10-15T04:48:57.960Z,10.87
2022-10-15T04:51:28.319Z,10.87
2022-10-15T04:53:56.495Z,10.83
2022-10-15T04:56:24.717Z,10.43
2022-10-15T04:58:52.815Z,10.70
2022-10-15T05:01:22.416Z,9.27
2022-10-15T05:03:51.229Z,7.97
2022-10-15T05:06:21.519Z,8.10
2022-10-15T05:08:51.516Z,7.90
2022-10-15T05:11:21.802Z,8.17
2022-10-15T05:13:50.222Z,9.53
2022-10-15T05:16:20.377Z,10.47
2022-10-15T05:18:50.969Z,12.53
2022-10-15T05:21:20.033Z,13.90
2022-10-15T05:23:50.241Z,14.57
2022-10-15T05:26:21.304Z,14.67
2022-10-15T05:28:49.629Z,16.33
2022-10-15T05:31:21.247Z,15.13
2022-10-15T05:33:50.213Z,15.33
2022-10-15T05:36:20.702Z,16.50
2022-10-15T05:38:50.972Z,18.07
2022-10-15T05:41:21.239Z,19.60
2022-10-15T05:43:50.250Z,17.13
2022-10-15T05:46:19.295Z,20.10
2022-10-15T05:48:50.243Z,20.57
2022-10-15T05:51:18.723Z,20.43
2022-10-15T05:53:47.374Z,19.13
2022-10-15T05:56:16.742Z,19.47
2022-10-15T05:58:46.792Z,18.07
2022-10-15T06:01:17.886Z,19.23
2022-10-15T06:03:46.378Z,19.60
2022-10-15T06:06:16.653Z,19.50
2022-10-15T06:08:45.296Z,19.37
2022-10-15T06:11:13.733Z,18.30
2022-10-15T06:13:43.600Z,15.43
2022-10-15T06:16:17.919Z,16.50
2022-10-15T06:18:49.290Z,17.67
2022-10-15T06:21:18.575Z,18.03
2022-10-15T06:23:46.769Z,16.67
2022-10-15T06:26:14.941Z,17.73
2022-10-15T06:28:43.531Z,18.00
2022-10-15T06:31:13.607Z,18.13
2022-10-15T06:33:42.070Z,17.63
2022-10-15T06:36:13.828Z,18.43
2022-10-15T06:38:44.325Z,19.07
2022-10-15T06:41:12.718Z,17.20
2022-10-15T06:43:43.771Z,18.30
2022-10-15T06:46:13.648Z,17.87
2022-10-15T06:48:42.052Z,18.17
2022-10-15T06:51:14.091Z,19.00
2022-10-15T06:53:44.039Z,18.70
2022-10-15T06:56:12.177Z,18.03
2022-10-15T06:58:43.688Z,16.67
2022-10-15T07:01:13.176Z,19.03
2022-10-15T07:03:41.919Z,19.10
2022-10-15T07:06:11.198Z,15.80
2022-10-15T07:08:39.569Z,14.60
2022-10-15T07:11:09.996Z,15.03
2022-10-15T07:13:39.013Z,15.13
2022-10-15T07:16:07.983Z,14.97
2022-10-15T07:18:38.244Z,13.53
2022-10-15T07:21:08.486Z,12.10
2022-10-15T07:23:36.725Z,13.13
2022-10-15T07:26:05.274Z,12.40
2022-10-15T07:28:33.936Z,12.47
2022-10-15T07:31:03.389Z,11.63
2022-10-15T07:33:31.793Z,11.63
2022-10-15T07:36:06.598Z,10.77
2022-10-15T07:38:35.114Z,10.77
2022-10-15T07:41:05.839Z,10.17
2022-10-15T07:43:34.625Z,10.30
2022-10-15T07:46:03.259Z,9.63
2022-10-15T07:48:31.741Z,9.27
2022-10-15T07:51:04.056Z,9.83
2022-10-15T07:53:33.078Z,8.50
2022-10-15T07:56:01.999Z,9.10
2022-10-15T07:58:30.813Z,9.07
2022-10-15T08:01:01.668Z,8.87
2022-10-15T08:03:30.721Z,9.47
2022-10-15T08:06:03.810Z,8.87
2022-10-15T08:08:31.976Z,8.83
2022-10-15T08:11:05.448Z,9.17
2022-10-15T08:13:34.370Z,8.73
2022-10-15T08:16:02.752Z,8.53
2022-10-15T08:18:31.080Z,9.60
2022-10-15T08:21:03.076Z,9.37
2022-10-15T08:23:31.397Z,8.50
2022-10-15T08:26:00.953Z,7.80
2022-10-15T08:28:29.308Z,8.50
2022-10-15T08:31:02.781Z,8.60
2022-10-15T08:33:34.562Z,7.87
2022-10-15T08:36:06.120Z,8.20
2022-10-15T08:38:35.189Z,7.80
2022-10-15T08:41:07.371Z,7.93
2022-10-15T08:43:38.697Z,8.20
2022-10-15T08:46:12.868Z,7.70
2022-10-15T08:48:46.739Z,7.40
2022-10-15T08:51:20.305Z,7.60
2022-10-15T08:53:54.863Z,6.80
2022-10-15T08:56:28.615Z,6.90
2022-10-15T08:59:05.219Z,6.20
2022-10-15T09:01:39.741Z,6.77
2022-10-15T09:04:21.488Z,5.90
2022-10-15T09:06:57.029Z,6.13
2022-10-15T09:09:32.914Z,6.37
2022-10-15T09:12:09.809Z,6.97
2022-10-15T09:14:42.821Z,6.37
2022-10-15T09:17:20.522Z,6.13
2022-10-15T09:19:53.225Z,6.23
2022-10-15T09:22:25.962Z,5.73
2022-10-15T09:24:54.487Z,4.97
2022-10-15T09:27:32.972Z,5.03
2022-10-15T09:30:07.208Z,4.03
2022-10-15T09:32:41.205Z,4.70
2022-10-15T09:35:17.497Z,5.07
2022-10-15T09:37:56.062Z,5.53
2022-10-15T09:40:35.310Z,5.03
2022-10-15T09:43:06.110Z,5.00
2022-10-15T09:45:34.649Z,3.93
2022-10-15T09:48:04.212Z,3.73
2022-10-15T09:50:42.151Z,3.60
2022-10-15T09:53:23.265Z,3.43
2022-10-15T09:56:05.220Z,3.30
2022-10-15T09:58:40.909Z,2.90
2022-10-15T10:01:18.336Z,3.17
2022-10-15T10:03:46.525Z,3.87
2022-10-15T10:06:16.054Z,3.50
2022-10-15T10:08:53.614Z,3.30
2022-10-15T10:11:23.680Z,2.60
2022-10-15T10:13:55.768Z,2.30
2022-10-15T10:16:25.284Z,1.60
2022-10-15T10:19:12.930Z,1.83
2022-10-15T10:21:42.974Z,3.30
2022-10-15T10:24:28.799Z,2.60
2022-10-15T10:26:57.713Z,2.60
2022-10-15T10:29:35.445Z,2.50
2022-10-15T10:32:12.622Z,2.50
2022-10-15T10:34:48.773Z,2.97
2022-10-15T10:37:20.079Z,3.00
2022-10-15T10:39:54.366Z,1.97
2022-10-15T10:42:32.315Z,2.50
2022-10-15T10:45:18.795Z,3.03
2022-10-15T10:47:47.804Z,2.07
2022-10-15T10:50:34.761Z,2.60
2022-10-15T10:53:21.354Z,3.13
2022-10-15T10:55:51.913Z,2.70
2022-10-15T10:58:26.293Z,2.40
2022-10-15T11:00:55.810Z,2.30
2022-10-15T11:03:43.099Z,2.17
2022-10-15T11:06:30.173Z,2.47
2022-10-15T11:09:09.003Z,2.50
2022-10-15T11:11:47.699Z,2.57
2022-10-15T11:14:26.196Z,2.80
2022-10-15T11:17:03.850Z,2.70
2022-10-15T11:22:44.269Z,2.80
2022-10-15T11:25:24.059Z,2.43
2022-10-15T11:28:15.046Z,2.60
2022-10-15T11:30:51.572Z,2.03
2022-10-15T11:33:53.066Z,1.90
2022-10-15T11:36:37.524Z,2.47
2022-10-15T11:39:30.549Z,2.20
2022-10-15T11:42:11.464Z,1.80
2022-10-15T11:45:01.346Z,1.70
2022-10-15T11:47:43.549Z,1.80
2022-10-15T11:50:26.701Z,1.93
2022-10-15T11:53:04.838Z,2.10
2022-10-15T11:55:41.088Z,1.87
2022-10-15T11:58:18.102Z,2.00
2022-10-15T12:00:52.942Z,1.50
2022-10-15T12:03:26.020Z,2.03
2022-10-15T12:05:59.924Z,1.70
2022-10-15T12:08:31.690Z,1.50
2022-10-15T12:11:12.767Z,1.80
2022-10-15T12:13:47.392Z,1.60
2022-10-15T12:16:27.775Z,1.67
2022-10-15T12:19:06.269Z,1.50
2022-10-15T12:21:38.974Z,1.57
2022-10-15T12:24:28.530Z,2.10
2022-10-15T12:26:56.910Z,1.37
2022-10-15T12:29:29.357Z,1.70
2022-10-15T12:31:58.788Z,1.70
2022-10-15T12:34:40.643Z,2.00
2022-10-15T12:37:18.187Z,1.70
2022-10-15T12:39:52.446Z,1.40
2022-10-15T12:42:27.218Z,1.70
2022-10-15T12:44:57.388Z,1.40
2022-10-15T12:47:49.967Z,1.40
2022-10-15T12:50:21.979Z,1.70
2022-10-15T12:53:29.134Z,1.77
2022-10-15T12:56:22.723Z,1.63
2022-10-15T12:58:52.379Z,1.23
2022-10-15T13:01:30.818Z,1.60
2022-10-15T13:04:01.559Z,1.10
2022-10-15T13:06:36.061Z,0.97
2022-10-15T13:09:25.777Z,1.30
2022-10-15T13:11:55.653Z,1.40
2022-10-15T13:14:33.712Z,1.30
2022-10-15T13:17:06.221Z,1.60
2022-10-15T13:19:39.670Z,1.80
2022-10-15T13:22:21.382Z,2.37
2022-10-15T13:24:49.824Z,2.60
2022-10-15T13:27:24.121Z,3.00
2022-10-15T13:29:57.048Z,2.90
2022-10-15T13:32:27.598Z,4.20
2022-10-15T13:34:58.718Z,3.90
2022-10-15T13:37:32.887Z,4.03
2022-10-15T13:40:06.530Z,3.80
2022-10-15T13:42:36.861Z,4.37
2022-10-15T13:45:16.555Z,4.07
2022-10-15T13:47:49.395Z,4.20
2022-10-15T13:50:25.398Z,4.90
2022-10-15T13:52:58.563Z,5.30
2022-10-15T13:55:29.522Z,5.23
2022-10-15T13:58:02.893Z,5.00
2022-10-15T14:00:33.769Z,4.63
2022-10-15T14:03:09.660Z,4.43
2022-10-15T14:05:39.731Z,5.33
2022-10-15T14:08:15.818Z,4.60
2022-10-15T14:10:44.129Z,4.37
2022-10-15T14:13:12.709Z,4.33
2022-10-15T14:15:47.947Z,3.93
2022-10-15T14:18:19.414Z,4.63
2022-10-15T14:20:50.543Z,3.90
2022-10-15T14:23:23.390Z,4.10
2022-10-15T14:25:57.026Z,3.47
2022-10-15T14:28:27.195Z,3.03
2022-10-15T14:30:56.456Z,3.63
2022-10-15T14:33:45.602Z,3.47
2022-10-15T14:36:27.843Z,3.10
2022-10-15T14:38:57.184Z,3.17
2022-10-15T14:41:29.523Z,2.97
2022-10-15T14:44:17.945Z,2.93
2022-10-15T14:46:48.992Z,3.30
2022-10-15T14:49:27.765Z,4.00
2022-10-15T14:52:02.303Z,3.50
2022-10-15T14:54:36.459Z,4.10
2022-10-15T14:57:05.424Z,3.70
2022-10-15T14:59:38.619Z,3.80
2022-10-15T15:02:15.714Z,4.07
2022-10-15T15:05:05.265Z,3.83
2022-10-15T15:07:35.194Z,3.80
2022-10-15T15:10:03.356Z,3.90
2022-10-15T15:12:33.137Z,3.30
2022-10-15T15:15:02.269Z,3.40
2022-10-15T15:17:31.609Z,3.70
2022-10-15T15:19:59.875Z,4.93
2022-10-15T15:22:32.085Z,4.83
2022-10-15T15:25:04.673Z,4.40
2022-10-15T15:27:37.291Z,5.63
2022-10-15T15:30:08.363Z,5.87
2022-10-15T15:32:36.571Z,4.23
2022-10-15T15:35:17.758Z,4.83
2022-10-15T15:37:45.988Z,4.60
2022-10-15T15:40:15.864Z,5.17
2022-10-15T15:42:44.560Z,5.27
2022-10-15T15:45:19.768Z,5.50
2022-10-15T15:47:47.926Z,5.50
2022-10-15T15:50:16.772Z,5.07
2022-10-15T15:52:45.069Z,5.40
2022-10-15T15:55:15.960Z,5.43
2022-10-15T15:57:45.405Z,5.30
2022-10-15T16:00:14.961Z,5.70
2022-10-15T16:02:43.240Z,5.43
2022-10-15T16:05:15.963Z,5.60
2022-10-15T16:07:44.482Z,6.10
2022-10-15T16:10:13.089Z,5.87
2022-10-15T16:12:44.233Z,6.13
2022-10-15T16:15:14.709Z,5.87
2022-10-15T16:17:43.713Z,6.37
2022-10-15T16:20:13.623Z,6.50
2022-10-15T16:22:42.753Z,6.73
2022-10-15T16:25:11.540Z,7.20
2022-10-15T16:27:39.852Z,7.83
2022-10-15T16:30:09.966Z,7.43
2022-10-15T16:32:38.259Z,7.57
2022-10-15T16:35:07.695Z,8.07
2022-10-15T16:37:35.776Z,7.07
2022-10-15T16:40:04.330Z,7.40
2022-10-15T16:42:32.569Z,7.57
2022-10-15T16:45:00.575Z,7.73
2022-10-15T16:47:30.161Z,8.30
2022-10-15T16:49:58.382Z,9.57
2022-10-15T16:52:27.352Z,8.67
2022-10-15T16:54:55.824Z,8.87
2022-10-15T16:57:24.459Z,9.20
2022-10-15T16:59:52.682Z,8.50
2022-10-15T17:02:20.900Z,8.80
2022-10-15T17:04:50.721Z,8.60
2022-10-15T17:07:19.148Z,9.30
2022-10-15T17:12:18.041Z,8.30
2022-10-15T17:14:50.815Z,7.83
2022-10-15T17:17:19.223Z,8.10
2022-10-15T17:19:47.406Z,9.47
2022-10-15T17:22:17.022Z,8.67
2022-10-15T17:24:45.382Z,8.53
2022-10-15T17:27:13.640Z,8.50
2022-10-15T17:29:41.761Z,8.27
2022-10-15T17:32:09.977Z,7.20
2022-10-15T17:34:38.435Z,8.07
2022-10-15T17:37:06.585Z,7.13
2022-10-15T17:39:36.320Z,8.23
2022-10-15T17:42:04.638Z,6.67
2022-10-15T17:44:32.820Z,6.40
2022-10-15T17:47:01.052Z,6.87
2022-10-15T17:49:29.283Z,7.67
2022-10-15T17:51:57.405Z,7.33
2022-10-15T17:54:25.820Z,7.07
2022-10-15T17:56:55.235Z,6.97
2022-10-15T17:59:23.545Z,7.90
2022-10-15T18:02:00.183Z,6.77
2022-10-15T18:04:29.582Z,6.40
2022-10-15T18:06:58.108Z,6.90
2022-10-15T18:09:26.577Z,6.97
2022-10-15T18:11:56.669Z,7.43
2022-10-15T18:14:24.859Z,6.97
2022-10-15T18:16:53.209Z,8.03
2022-10-15T18:19:21.421Z,9.73
2022-10-15T18:21:50.098Z,8.60
2022-10-15T18:24:21.719Z,8.83
2022-10-15T18:26:50.777Z,9.20
2022-10-15T18:29:20.580Z,9.40
2022-10-15T18:31:52.222Z,9.33
2022-10-15T18:34:23.522Z,9.53
2022-10-15T18:36:51.608Z,9.47
2022-10-15T18:39:19.674Z,9.07
2022-10-15T18:41:47.938Z,9.60
2022-10-15T18:44:17.976Z,11.40
2022-10-15T18:46:47.524Z,9.57
2022-10-15T18:49:17.317Z,8.37
2022-10-15T18:51:46.686Z,8.93
2022-10-15T18:54:15.281Z,9.73
2022-10-15T18:56:43.417Z,10.93
2022-10-15T18:59:11.582Z,9.97
2022-10-15T19:01:43.260Z,8.40
2022-10-15T19:04:14.612Z,9.87
2022-10-15T19:06:44.512Z,9.60
2022-10-15T19:09:15.174Z,8.23
2022-10-15T19:11:45.353Z,9.23
2022-10-15T19:14:15.453Z,10.33
2022-10-15T19:16:44.347Z,11.43
2022-10-15T19:19:16.357Z,10.43
2022-10-15T19:21:44.542Z,11.07
2022-10-15T19:24:13.015Z,11.30
2022-10-15T19:26:41.540Z,13.50
2022-10-15T19:29:10.592Z,12.60
2022-10-15T19:31:41.157Z,12.00
2022-10-15T19:34:09.623Z,11.10
2022-10-15T19:36:41.480Z,12.10
2022-10-15T19:39:12.833Z,12.67
2022-10-15T19:41:42.434Z,12.67
2022-10-15T19:44:12.980Z,13.33
2022-10-15T19:46:42.069Z,13.60
2022-10-15T19:49:13.278Z,15.00
2022-10-15T19:51:42.890Z,14.13
2022-10-15T19:54:11.428Z,12.67
2022-10-15T19:56:39.685Z,16.27
2022-10-15T19:59:09.185Z,14.83
2022-10-15T20:01:37.632Z,15.43
2022-10-15T20:04:07.064Z,16.53
2022-10-15T20:06:36.346Z,16.17
2022-10-15T20:09:06.728Z,14.47
2022-10-15T20:11:34.896Z,14.13
2022-10-15T20:14:03.556Z,15.10
2022-10-15T20:16:33.471Z,11.67
2022-10-15T20:19:02.922Z,14.00
2022-10-15T20:21:31.048Z,12.77
2022-10-15T20:23:59.648Z,12.33
2022-10-15T20:26:29.094Z,10.63
2022-10-15T20:28:57.636Z,9.60
2022-10-15T20:31:29.127Z,13.17
2022-10-15T20:33:57.171Z,9.53
2022-10-15T20:36:27.381Z,12.57
2022-10-15T20:38:57.590Z,11.77
2022-10-15T20:41:25.884Z,11.90
2022-10-15T20:43:56.713Z,11.53
2022-10-15T20:46:28.678Z,11.30
2022-10-15T20:48:59.596Z,10.30
2022-10-15T20:51:28.985Z,11.10
2022-10-15T20:53:58.916Z,10.83
2022-10-15T20:56:27.257Z,12.37
2022-10-15T20:58:56.634Z,8.50
2022-10-15T21:01:25.277Z,10.63
2022-10-15T21:03:53.657Z,10.13
2022-10-15T21:06:21.732Z,10.30
2022-10-15T21:08:50.390Z,9.53
2022-10-15T21:11:18.843Z,10.00
2022-10-15T21:13:47.097Z,10.13
2022-10-15T21:16:17.033Z,10.63
2022-10-15T21:18:45.206Z,9.67
2022-10-15T21:21:15.009Z,9.77
2022-10-15T21:23:43.861Z,10.90
2022-10-15T21:26:13.644Z,11.03
2022-10-15T21:28:42.128Z,10.33
2022-10-15T21:31:12.138Z,10.33
2022-10-15T21:33:41.997Z,9.30
2022-10-15T21:36:14.975Z,8.40
2022-10-15T21:38:43.722Z,8.93
2022-10-15T21:41:11.783Z,9.70
2022-10-15T21:43:40.175Z,9.23
2022-10-15T21:46:10.837Z,8.37
2022-10-15T21:48:39.847Z,9.73
2022-10-15T21:51:13.212Z,8.10
2022-10-15T21:53:41.992Z,8.50
2022-10-15T21:56:10.693Z,8.20
2022-10-15T21:58:41.433Z,8.43
2022-10-15T22:01:13.566Z,8.77
2022-10-15T22:03:44.578Z,9.83
2022-10-15T22:06:14.812Z,8.93
2022-10-15T22:08:43.474Z,8.60
2022-10-15T22:11:14.327Z,9.60
2022-10-15T22:13:43.205Z,9.93
2022-10-15T22:16:11.783Z,9.80
2022-10-15T22:18:41.697Z,9.83
2022-10-15T22:21:15.451Z,9.40
2022-10-15T22:23:46.564Z,8.53
2022-10-15T22:26:15.237Z,6.30
2022-10-15T22:28:44.950Z,4.33
2022-10-15T22:31:15.027Z,6.00
2022-10-15T22:33:43.666Z,6.50
2022-10-15T22:36:15.933Z,7.73
2022-10-15T22:38:47.455Z,9.80
2022-10-15T22:41:16.794Z,9.80
2022-10-15T22:43:45.278Z,10.77
2022-10-15T22:46:13.861Z,11.17
2022-10-15T22:48:43.541Z,11.20
2022-10-15T22:51:13.706Z,10.90
2022-10-15T22:53:42.015Z,11.47
2022-10-15T22:56:14.350Z,10.73
2022-10-15T22:58:43.033Z,9.53
2022-10-15T23:01:13.750Z,11.17
2022-10-15T23:03:43.283Z,9.77
2022-10-15T23:06:12.450Z,9.83
2022-10-15T23:08:40.830Z,8.50
2022-10-15T23:11:12.617Z,9.57
2022-10-15T23:13:41.781Z,8.70
2022-10-15T23:16:13.940Z,10.17
2022-10-15T23:18:43.789Z,8.83
2022-10-15T23:21:14.851Z,10.37
2022-10-15T23:23:44.520Z,10.70
2022-10-15T23:26:15.684Z,11.50
2022-10-15T23:28:44.843Z,11.60
2022-10-15T23:31:17.349Z,10.30
2022-10-15T23:33:45.586Z,11.80
2022-10-15T23:36:13.828Z,11.70
2022-10-15T23:38:42.168Z,12.40
2022-10-15T23:41:11.221Z,11.73
2022-10-15T23:43:40.907Z,11.37
2022-10-15T23:46:09.842Z,10.60
2022-10-15T23:48:38.354Z,9.60
2022-10-15T23:51:13.694Z,8.40
2022-10-15T23:56:10.382Z,8.33
2022-10-15T23:58:38.658Z,7.07
